sensor_id;sensor_type;location;lat;lon;timestamp;P1;durP1;ratioP1;P2;durP2;ratioP2
52668;SDS011;59898;52.786;6.892;2023-09-19T00:01:55;9.00;;;2.40;;
52668;SDS011;59898;52.786;6.892;2023-09-19T00:05:16;4.80;;;2.60;;
52668;SDS011;59898;52.786;6.892;2023-09-19T00:08:37;3.17;;;1.75;;
52668;SDS011;59898;52.786;6.892;2023-09-19T00:11:58;3.28;;;2.00;;
52668;SDS011;59898;52.786;6.892;2023-09-19T00:15:19;4.00;;;1.70;;
52668;SDS011;59898;52.786;6.892;2023-09-19T00:18:40;4.30;;;2.00;;
52668;SDS011;59898;52.786;6.892;2023-09-19T00:22:01;4.65;;;1.90;;
52668;SDS011;59898;52.786;6.892;2023-09-19T00:25:22;6.43;;;2.20;;
52668;SDS011;59898;52.786;6.892;2023-09-19T00:28:42;3.33;;;2.03;;
52668;SDS011;59898;52.786;6.892;2023-09-19T00:32:03;4.13;;;2.10;;
52668;SDS011;59898;52.786;6.892;2023-09-19T00:35:25;3.30;;;1.58;;
52668;SDS011;59898;52.786;6.892;2023-09-19T00:38:45;5.00;;;2.30;;
52668;SDS011;59898;52.786;6.892;2023-09-19T00:42:06;8.05;;;2.38;;
52668;SDS011;59898;52.786;6.892;2023-09-19T00:45:28;4.70;;;2.22;;
52668;SDS011;59898;52.786;6.892;2023-09-19T00:48:49;5.07;;;2.33;;
52668;SDS011;59898;52.786;6.892;2023-09-19T00:52:10;9.23;;;2.50;;
52668;SDS011;59898;52.786;6.892;2023-09-19T00:55:32;5.30;;;2.65;;
52668;SDS011;59898;52.786;6.892;2023-09-19T00:58:52;5.60;;;2.65;;
52668;SDS011;59898;52.786;6.892;2023-09-19T01:02:13;4.32;;;2.50;;
52668;SDS011;59898;52.786;6.892;2023-09-19T01:05:35;5.97;;;2.63;;
52668;SDS011;59898;52.786;6.892;2023-09-19T01:08:56;7.13;;;3.10;;
52668;SDS011;59898;52.786;6.892;2023-09-19T01:12:18;6.50;;;3.72;;
52668;SDS011;59898;52.786;6.892;2023-09-19T01:30:58;5.60;;;3.42;;
52668;SDS011;59898;52.786;6.892;2023-09-19T01:34:21;9.40;;;2.97;;
52668;SDS011;59898;52.786;6.892;2023-09-19T01:37:42;7.68;;;3.17;;
52668;SDS011;59898;52.786;6.892;2023-09-19T01:41:05;12.63;;;3.83;;
52668;SDS011;59898;52.786;6.892;2023-09-19T01:44:40;8.82;;;3.38;;
52668;SDS011;59898;52.786;6.892;2023-09-19T01:52:03;6.60;;;3.30;;
52668;SDS011;59898;52.786;6.892;2023-09-19T01:55:33;6.80;;;2.95;;
52668;SDS011;59898;52.786;6.892;2023-09-19T01:58:58;12.80;;;4.22;;
52668;SDS011;59898;52.786;6.892;2023-09-19T02:02:24;10.75;;;3.17;;
52668;SDS011;59898;52.786;6.892;2023-09-19T02:05:49;8.85;;;3.25;;
52668;SDS011;59898;52.786;6.892;2023-09-19T02:09:11;7.55;;;3.08;;
52668;SDS011;59898;52.786;6.892;2023-09-19T02:12:32;8.75;;;3.17;;
52668;SDS011;59898;52.786;6.892;2023-09-19T02:15:54;14.27;;;3.80;;
52668;SDS011;59898;52.786;6.892;2023-09-19T02:19:15;9.95;;;3.53;;
52668;SDS011;59898;52.786;6.892;2023-09-19T02:22:37;8.93;;;3.05;;
52668;SDS011;59898;52.786;6.892;2023-09-19T02:25:58;10.52;;;3.33;;
52668;SDS011;59898;52.786;6.892;2023-09-19T02:29:22;7.30;;;3.55;;
52668;SDS011;59898;52.786;6.892;2023-09-19T02:32:42;12.30;;;4.57;;
52668;SDS011;59898;52.786;6.892;2023-09-19T02:36:03;9.65;;;3.35;;
52668;SDS011;59898;52.786;6.892;2023-09-19T02:39:24;8.30;;;3.20;;
52668;SDS011;59898;52.786;6.892;2023-09-19T02:42:47;8.23;;;2.83;;
52668;SDS011;59898;52.786;6.892;2023-09-19T02:46:11;7.93;;;3.42;;
52668;SDS011;59898;52.786;6.892;2023-09-19T02:49:32;8.82;;;3.53;;
52668;SDS011;59898;52.786;6.892;2023-09-19T02:52:53;12.25;;;3.50;;
52668;SDS011;59898;52.786;6.892;2023-09-19T02:56:14;5.63;;;2.83;;
52668;SDS011;59898;52.786;6.892;2023-09-19T02:59:35;8.35;;;3.22;;
52668;SDS011;59898;52.786;6.892;2023-09-19T03:02:57;6.70;;;3.00;;
52668;SDS011;59898;52.786;6.892;2023-09-19T03:06:17;11.30;;;3.13;;
52668;SDS011;59898;52.786;6.892;2023-09-19T03:09:39;9.97;;;3.23;;
52668;SDS011;59898;52.786;6.892;2023-09-19T03:13:00;8.43;;;3.03;;
52668;SDS011;59898;52.786;6.892;2023-09-19T03:16:21;8.38;;;2.97;;
52668;SDS011;59898;52.786;6.892;2023-09-19T03:19:42;8.32;;;3.40;;
52668;SDS011;59898;52.786;6.892;2023-09-19T03:23:03;7.72;;;3.55;;
52668;SDS011;59898;52.786;6.892;2023-09-19T03:26:25;7.82;;;3.45;;
52668;SDS011;59898;52.786;6.892;2023-09-19T03:29:46;9.90;;;3.67;;
52668;SDS011;59898;52.786;6.892;2023-09-19T03:33:07;9.82;;;3.00;;
52668;SDS011;59898;52.786;6.892;2023-09-19T03:36:28;13.10;;;3.67;;
52668;SDS011;59898;52.786;6.892;2023-09-19T03:39:49;5.65;;;2.92;;
52668;SDS011;59898;52.786;6.892;2023-09-19T03:43:10;7.75;;;2.72;;
52668;SDS011;59898;52.786;6.892;2023-09-19T03:46:31;8.02;;;3.17;;
52668;SDS011;59898;52.786;6.892;2023-09-19T03:49:52;6.95;;;2.60;;
52668;SDS011;59898;52.786;6.892;2023-09-19T03:53:12;7.38;;;2.58;;
52668;SDS011;59898;52.786;6.892;2023-09-19T03:56:33;9.52;;;3.20;;
52668;SDS011;59898;52.786;6.892;2023-09-19T03:59:54;7.00;;;2.92;;
52668;SDS011;59898;52.786;6.892;2023-09-19T04:03:15;7.75;;;3.20;;
52668;SDS011;59898;52.786;6.892;2023-09-19T04:06:40;9.15;;;2.72;;
52668;SDS011;59898;52.786;6.892;2023-09-19T04:10:01;13.80;;;3.40;;
52668;SDS011;59898;52.786;6.892;2023-09-19T04:13:22;13.43;;;3.33;;
52668;SDS011;59898;52.786;6.892;2023-09-19T04:16:42;8.90;;;3.75;;
52668;SDS011;59898;52.786;6.892;2023-09-19T04:20:03;8.45;;;3.38;;
52668;SDS011;59898;52.786;6.892;2023-09-19T04:23:26;11.40;;;3.25;;
52668;SDS011;59898;52.786;6.892;2023-09-19T04:26:48;11.82;;;3.08;;
52668;SDS011;59898;52.786;6.892;2023-09-19T04:30:08;10.30;;;3.42;;
52668;SDS011;59898;52.786;6.892;2023-09-19T04:33:32;8.85;;;4.55;;
52668;SDS011;59898;52.786;6.892;2023-09-19T04:36:55;11.32;;;4.95;;
52668;SDS011;59898;52.786;6.892;2023-09-19T04:40:18;9.57;;;4.47;;
52668;SDS011;59898;52.786;6.892;2023-09-19T04:43:39;12.68;;;3.67;;
52668;SDS011;59898;52.786;6.892;2023-09-19T04:46:59;9.00;;;3.50;;
52668;SDS011;59898;52.786;6.892;2023-09-19T04:50:20;9.98;;;3.97;;
52668;SDS011;59898;52.786;6.892;2023-09-19T04:53:46;7.43;;;3.25;;
52668;SDS011;59898;52.786;6.892;2023-09-19T04:57:07;9.50;;;3.47;;
52668;SDS011;59898;52.786;6.892;2023-09-19T05:00:28;9.13;;;3.08;;
52668;SDS011;59898;52.786;6.892;2023-09-19T05:03:50;10.83;;;3.73;;
52668;SDS011;59898;52.786;6.892;2023-09-19T05:07:14;6.97;;;3.78;;
52668;SDS011;59898;52.786;6.892;2023-09-19T05:10:34;12.70;;;3.00;;
52668;SDS011;59898;52.786;6.892;2023-09-19T05:13:57;13.85;;;3.20;;
52668;SDS011;59898;52.786;6.892;2023-09-19T05:17:21;13.63;;;4.20;;
52668;SDS011;59898;52.786;6.892;2023-09-19T05:20:42;12.25;;;5.50;;
52668;SDS011;59898;52.786;6.892;2023-09-19T05:24:03;18.13;;;5.13;;
52668;SDS011;59898;52.786;6.892;2023-09-19T05:27:26;9.55;;;3.85;;
52668;SDS011;59898;52.786;6.892;2023-09-19T05:30:46;12.75;;;3.97;;
52668;SDS011;59898;52.786;6.892;2023-09-19T05:34:07;11.48;;;4.13;;
52668;SDS011;59898;52.786;6.892;2023-09-19T05:37:28;10.35;;;3.28;;
52668;SDS011;59898;52.786;6.892;2023-09-19T05:40:49;9.02;;;3.33;;
52668;SDS011;59898;52.786;6.892;2023-09-19T05:44:10;15.63;;;3.58;;
52668;SDS011;59898;52.786;6.892;2023-09-19T05:47:30;9.05;;;4.00;;
52668;SDS011;59898;52.786;6.892;2023-09-19T05:50:51;8.90;;;3.78;;
52668;SDS011;59898;52.786;6.892;2023-09-19T05:54:11;10.30;;;3.42;;
52668;SDS011;59898;52.786;6.892;2023-09-19T05:57:32;13.98;;;3.65;;
52668;SDS011;59898;52.786;6.892;2023-09-19T06:00:53;8.82;;;3.35;;
52668;SDS011;59898;52.786;6.892;2023-09-19T06:04:15;15.13;;;3.80;;
52668;SDS011;59898;52.786;6.892;2023-09-19T06:07:36;12.60;;;3.88;;
52668;SDS011;59898;52.786;6.892;2023-09-19T06:10:57;10.90;;;3.40;;
52668;SDS011;59898;52.786;6.892;2023-09-19T06:14:17;11.02;;;3.28;;
52668;SDS011;59898;52.786;6.892;2023-09-19T06:17:39;11.77;;;4.05;;
52668;SDS011;59898;52.786;6.892;2023-09-19T06:20:59;13.27;;;3.80;;
52668;SDS011;59898;52.786;6.892;2023-09-19T06:24:20;12.68;;;3.63;;
52668;SDS011;59898;52.786;6.892;2023-09-19T06:27:41;10.45;;;3.30;;
52668;SDS011;59898;52.786;6.892;2023-09-19T06:31:02;6.85;;;3.50;;
52668;SDS011;59898;52.786;6.892;2023-09-19T06:34:23;10.02;;;3.58;;
52668;SDS011;59898;52.786;6.892;2023-09-19T06:37:45;8.20;;;3.03;;
52668;SDS011;59898;52.786;6.892;2023-09-19T06:41:07;12.18;;;3.05;;
52668;SDS011;59898;52.786;6.892;2023-09-19T06:44:29;6.90;;;3.13;;
52668;SDS011;59898;52.786;6.892;2023-09-19T06:47:51;6.68;;;4.13;;
52668;SDS011;59898;52.786;6.892;2023-09-19T06:51:11;15.85;;;4.18;;
52668;SDS011;59898;52.786;6.892;2023-09-19T06:54:32;12.98;;;4.10;;
52668;SDS011;59898;52.786;6.892;2023-09-19T06:57:54;10.23;;;3.13;;
52668;SDS011;59898;52.786;6.892;2023-09-19T07:01:15;10.13;;;3.20;;
52668;SDS011;59898;52.786;6.892;2023-09-19T07:04:35;9.30;;;3.30;;
52668;SDS011;59898;52.786;6.892;2023-09-19T07:07:56;7.97;;;3.78;;
52668;SDS011;59898;52.786;6.892;2023-09-19T07:11:19;13.27;;;3.65;;
52668;SDS011;59898;52.786;6.892;2023-09-19T07:14:39;7.57;;;3.20;;
52668;SDS011;59898;52.786;6.892;2023-09-19T07:18:00;12.57;;;3.72;;
52668;SDS011;59898;52.786;6.892;2023-09-19T07:21:21;11.75;;;3.40;;
52668;SDS011;59898;52.786;6.892;2023-09-19T07:24:41;14.27;;;3.30;;
52668;SDS011;59898;52.786;6.892;2023-09-19T07:28:02;9.82;;;3.60;;
52668;SDS011;59898;52.786;6.892;2023-09-19T07:31:23;8.18;;;2.97;;
52668;SDS011;59898;52.786;6.892;2023-09-19T07:34:45;7.57;;;3.10;;
52668;SDS011;59898;52.786;6.892;2023-09-19T07:38:06;13.52;;;3.95;;
52668;SDS011;59898;52.786;6.892;2023-09-19T07:41:27;7.50;;;3.00;;
52668;SDS011;59898;52.786;6.892;2023-09-19T07:44:50;8.52;;;3.35;;
52668;SDS011;59898;52.786;6.892;2023-09-19T07:48:11;15.27;;;4.80;;
52668;SDS011;59898;52.786;6.892;2023-09-19T07:51:34;11.45;;;3.47;;
52668;SDS011;59898;52.786;6.892;2023-09-19T07:54:55;11.63;;;3.53;;
52668;SDS011;59898;52.786;6.892;2023-09-19T07:58:17;14.88;;;3.80;;
52668;SDS011;59898;52.786;6.892;2023-09-19T08:01:38;9.48;;;4.05;;
52668;SDS011;59898;52.786;6.892;2023-09-19T08:04:59;13.88;;;3.00;;
52668;SDS011;59898;52.786;6.892;2023-09-19T08:08:20;11.10;;;3.53;;
52668;SDS011;59898;52.786;6.892;2023-09-19T08:11:41;9.48;;;3.08;;
52668;SDS011;59898;52.786;6.892;2023-09-19T08:15:03;9.43;;;4.32;;
52668;SDS011;59898;52.786;6.892;2023-09-19T08:18:24;7.95;;;3.15;;
52668;SDS011;59898;52.786;6.892;2023-09-19T08:21:44;10.25;;;3.85;;
52668;SDS011;59898;52.786;6.892;2023-09-19T08:25:07;8.77;;;3.30;;
52668;SDS011;59898;52.786;6.892;2023-09-19T08:28:27;7.72;;;3.30;;
52668;SDS011;59898;52.786;6.892;2023-09-19T08:31:49;8.77;;;3.17;;
52668;SDS011;59898;52.786;6.892;2023-09-19T08:35:11;8.77;;;3.38;;
52668;SDS011;59898;52.786;6.892;2023-09-19T08:38:31;11.88;;;4.57;;
52668;SDS011;59898;52.786;6.892;2023-09-19T08:41:56;9.02;;;3.92;;
52668;SDS011;59898;52.786;6.892;2023-09-19T08:45:19;14.07;;;3.47;;
52668;SDS011;59898;52.786;6.892;2023-09-19T08:48:45;11.32;;;3.92;;
52668;SDS011;59898;52.786;6.892;2023-09-19T08:52:18;10.43;;;3.45;;
52668;SDS011;59898;52.786;6.892;2023-09-19T08:55:43;10.82;;;3.70;;
52668;SDS011;59898;52.786;6.892;2023-09-19T08:59:08;15.38;;;4.00;;
52668;SDS011;59898;52.786;6.892;2023-09-19T09:02:29;8.65;;;3.47;;
52668;SDS011;59898;52.786;6.892;2023-09-19T09:05:54;13.40;;;3.67;;
52668;SDS011;59898;52.786;6.892;2023-09-19T09:09:15;11.15;;;3.75;;
52668;SDS011;59898;52.786;6.892;2023-09-19T09:12:35;10.60;;;3.38;;
52668;SDS011;59898;52.786;6.892;2023-09-19T09:16:01;10.00;;;3.55;;
52668;SDS011;59898;52.786;6.892;2023-09-19T09:19:21;10.90;;;4.55;;
52668;SDS011;59898;52.786;6.892;2023-09-19T09:22:50;10.88;;;3.70;;
52668;SDS011;59898;52.786;6.892;2023-09-19T09:26:14;8.88;;;4.15;;
52668;SDS011;59898;52.786;6.892;2023-09-19T09:29:43;8.65;;;3.45;;
52668;SDS011;59898;52.786;6.892;2023-09-19T09:33:07;12.18;;;4.20;;
52668;SDS011;59898;52.786;6.892;2023-09-19T09:36:34;10.80;;;4.32;;
52668;SDS011;59898;52.786;6.892;2023-09-19T09:40:01;9.13;;;3.17;;
52668;SDS011;59898;52.786;6.892;2023-09-19T09:43:45;17.88;;;4.15;;
52668;SDS011;59898;52.786;6.892;2023-09-19T09:47:08;9.18;;;4.15;;
52668;SDS011;59898;52.786;6.892;2023-09-19T09:50:48;11.70;;;4.47;;
52668;SDS011;59898;52.786;6.892;2023-09-19T09:54:16;13.65;;;4.28;;
52668;SDS011;59898;52.786;6.892;2023-09-19T09:57:40;9.68;;;4.18;;
52668;SDS011;59898;52.786;6.892;2023-09-19T10:01:02;10.80;;;4.03;;
52668;SDS011;59898;52.786;6.892;2023-09-19T10:04:28;15.40;;;3.58;;
52668;SDS011;59898;52.786;6.892;2023-09-19T10:07:56;11.65;;;4.45;;
52668;SDS011;59898;52.786;6.892;2023-09-19T10:11:32;13.18;;;3.95;;
52668;SDS011;59898;52.786;6.892;2023-09-19T10:14:53;7.13;;;3.35;;
52668;SDS011;59898;52.786;6.892;2023-09-19T10:18:22;9.40;;;3.95;;
52668;SDS011;59898;52.786;6.892;2023-09-19T10:21:43;10.55;;;4.07;;
52668;SDS011;59898;52.786;6.892;2023-09-19T10:25:05;11.48;;;4.13;;
52668;SDS011;59898;52.786;6.892;2023-09-19T10:28:28;12.43;;;3.55;;
52668;SDS011;59898;52.786;6.892;2023-09-19T10:31:52;15.07;;;3.80;;
52668;SDS011;59898;52.786;6.892;2023-09-19T10:35:13;10.63;;;4.00;;
52668;SDS011;59898;52.786;6.892;2023-09-19T10:38:36;16.15;;;3.80;;
52668;SDS011;59898;52.786;6.892;2023-09-19T10:42:01;9.68;;;3.70;;
52668;SDS011;59898;52.786;6.892;2023-09-19T10:45:25;11.35;;;4.30;;
52668;SDS011;59898;52.786;6.892;2023-09-19T10:48:46;11.05;;;3.88;;
52668;SDS011;59898;52.786;6.892;2023-09-19T10:52:10;7.78;;;3.55;;
52668;SDS011;59898;52.786;6.892;2023-09-19T10:55:35;6.03;;;3.25;;
52668;SDS011;59898;52.786;6.892;2023-09-19T10:59:15;11.27;;;3.95;;
52668;SDS011;59898;52.786;6.892;2023-09-19T11:02:38;9.95;;;3.58;;
52668;SDS011;59898;52.786;6.892;2023-09-19T11:06:00;14.93;;;5.80;;
52668;SDS011;59898;52.786;6.892;2023-09-19T11:09:25;9.18;;;3.70;;
52668;SDS011;59898;52.786;6.892;2023-09-19T11:13:26;9.02;;;3.80;;
52668;SDS011;59898;52.786;6.892;2023-09-19T11:20:31;10.93;;;3.20;;
52668;SDS011;59898;52.786;6.892;2023-09-19T11:28:08;9.15;;;4.10;;
52668;SDS011;59898;52.786;6.892;2023-09-19T11:31:41;10.23;;;3.67;;
52668;SDS011;59898;52.786;6.892;2023-09-19T11:35:06;13.13;;;3.80;;
52668;SDS011;59898;52.786;6.892;2023-09-19T11:42:40;10.25;;;3.60;;
52668;SDS011;59898;52.786;6.892;2023-09-19T11:46:05;12.90;;;3.70;;
52668;SDS011;59898;52.786;6.892;2023-09-19T11:49:26;15.00;;;3.60;;
52668;SDS011;59898;52.786;6.892;2023-09-19T11:52:50;11.70;;;4.10;;
52668;SDS011;59898;52.786;6.892;2023-09-19T11:56:19;5.95;;;2.95;;
52668;SDS011;59898;52.786;6.892;2023-09-19T11:59:41;8.15;;;3.10;;
52668;SDS011;59898;52.786;6.892;2023-09-19T12:03:05;9.20;;;3.42;;
52668;SDS011;59898;52.786;6.892;2023-09-19T12:06:30;10.85;;;3.40;;
52668;SDS011;59898;52.786;6.892;2023-09-19T12:10:02;10.05;;;3.97;;
52668;SDS011;59898;52.786;6.892;2023-09-19T12:13:24;12.98;;;3.47;;
52668;SDS011;59898;52.786;6.892;2023-09-19T12:16:50;6.53;;;2.80;;
52668;SDS011;59898;52.786;6.892;2023-09-19T12:20:15;17.27;;;3.40;;
52668;SDS011;59898;52.786;6.892;2023-09-19T12:23:37;17.35;;;4.32;;
52668;SDS011;59898;52.786;6.892;2023-09-19T12:27:04;8.60;;;3.28;;
52668;SDS011;59898;52.786;6.892;2023-09-19T12:30:29;9.98;;;3.58;;
52668;SDS011;59898;52.786;6.892;2023-09-19T12:33:53;12.90;;;3.80;;
52668;SDS011;59898;52.786;6.892;2023-09-19T12:37:15;8.95;;;3.20;;
52668;SDS011;59898;52.786;6.892;2023-09-19T12:40:40;13.65;;;4.18;;
52668;SDS011;59898;52.786;6.892;2023-09-19T12:44:02;15.43;;;4.05;;
52668;SDS011;59898;52.786;6.892;2023-09-19T12:47:29;12.57;;;3.95;;
52668;SDS011;59898;52.786;6.892;2023-09-19T12:51:05;15.32;;;3.92;;
52668;SDS011;59898;52.786;6.892;2023-09-19T12:54:39;12.95;;;3.85;;
52668;SDS011;59898;52.786;6.892;2023-09-19T13:01:27;14.93;;;4.43;;
52668;SDS011;59898;52.786;6.892;2023-09-19T13:04:54;7.45;;;4.03;;
52668;SDS011;59898;52.786;6.892;2023-09-19T13:08:28;10.57;;;3.45;;
52668;SDS011;59898;52.786;6.892;2023-09-19T13:11:51;8.13;;;3.65;;
52668;SDS011;59898;52.786;6.892;2023-09-19T13:15:14;9.48;;;3.45;;
52668;SDS011;59898;52.786;6.892;2023-09-19T13:18:45;16.23;;;3.97;;
52668;SDS011;59898;52.786;6.892;2023-09-19T13:26:02;8.02;;;2.75;;
52668;SDS011;59898;52.786;6.892;2023-09-19T13:29:25;18.08;;;3.83;;
52668;SDS011;59898;52.786;6.892;2023-09-19T13:32:46;11.52;;;3.13;;
52668;SDS011;59898;52.786;6.892;2023-09-19T13:36:07;8.18;;;2.95;;
52668;SDS011;59898;52.786;6.892;2023-09-19T13:39:31;9.95;;;2.53;;
52668;SDS011;59898;52.786;6.892;2023-09-19T13:42:52;12.13;;;3.35;;
52668;SDS011;59898;52.786;6.892;2023-09-19T13:46:13;6.82;;;3.17;;
52668;SDS011;59898;52.786;6.892;2023-09-19T13:49:36;7.10;;;2.63;;
52668;SDS011;59898;52.786;6.892;2023-09-19T13:52:57;7.68;;;3.05;;
52668;SDS011;59898;52.786;6.892;2023-09-19T13:56:22;7.93;;;3.17;;
52668;SDS011;59898;52.786;6.892;2023-09-19T13:59:43;14.60;;;3.95;;
52668;SDS011;59898;52.786;6.892;2023-09-19T14:03:04;10.23;;;2.40;;
52668;SDS011;59898;52.786;6.892;2023-09-19T14:06:25;7.68;;;2.75;;
52668;SDS011;59898;52.786;6.892;2023-09-19T14:09:45;8.77;;;3.30;;
52668;SDS011;59898;52.786;6.892;2023-09-19T14:13:08;7.13;;;2.45;;
52668;SDS011;59898;52.786;6.892;2023-09-19T14:16:29;8.70;;;2.90;;
52668;SDS011;59898;52.786;6.892;2023-09-19T14:19:51;6.97;;;2.90;;
52668;SDS011;59898;52.786;6.892;2023-09-19T14:23:11;7.65;;;2.47;;
52668;SDS011;59898;52.786;6.892;2023-09-19T14:26:32;6.63;;;3.15;;
52668;SDS011;59898;52.786;6.892;2023-09-19T14:29:52;5.68;;;2.20;;
52668;SDS011;59898;52.786;6.892;2023-09-19T14:33:13;9.48;;;2.75;;
52668;SDS011;59898;52.786;6.892;2023-09-19T14:36:35;5.95;;;2.05;;
52668;SDS011;59898;52.786;6.892;2023-09-19T14:39:58;6.47;;;2.40;;
52668;SDS011;59898;52.786;6.892;2023-09-19T14:43:19;4.97;;;2.45;;
52668;SDS011;59898;52.786;6.892;2023-09-19T14:46:40;7.18;;;2.60;;
52668;SDS011;59898;52.786;6.892;2023-09-19T14:50:01;7.18;;;2.97;;
52668;SDS011;59898;52.786;6.892;2023-09-19T14:53:26;5.55;;;2.25;;
52668;SDS011;59898;52.786;6.892;2023-09-19T14:56:47;6.32;;;2.28;;
52668;SDS011;59898;52.786;6.892;2023-09-19T15:00:13;5.63;;;2.35;;
52668;SDS011;59898;52.786;6.892;2023-09-19T15:03:35;4.35;;;2.10;;
52668;SDS011;59898;52.786;6.892;2023-09-19T15:06:56;7.10;;;2.55;;
52668;SDS011;59898;52.786;6.892;2023-09-19T15:10:16;7.47;;;2.55;;
52668;SDS011;59898;52.786;6.892;2023-09-19T15:13:38;8.30;;;2.60;;
52668;SDS011;59898;52.786;6.892;2023-09-19T15:16:59;6.18;;;2.45;;
52668;SDS011;59898;52.786;6.892;2023-09-19T15:20:20;5.25;;;2.20;;
52668;SDS011;59898;52.786;6.892;2023-09-19T15:23:43;6.00;;;2.00;;
52668;SDS011;59898;52.786;6.892;2023-09-19T15:27:04;7.90;;;2.42;;
52668;SDS011;59898;52.786;6.892;2023-09-19T15:30:24;6.50;;;2.67;;
52668;SDS011;59898;52.786;6.892;2023-09-19T15:33:45;4.63;;;2.83;;
52668;SDS011;59898;52.786;6.892;2023-09-19T15:37:06;4.63;;;2.42;;
52668;SDS011;59898;52.786;6.892;2023-09-19T15:40:27;4.38;;;2.00;;
52668;SDS011;59898;52.786;6.892;2023-09-19T15:43:47;3.53;;;1.88;;
52668;SDS011;59898;52.786;6.892;2023-09-19T15:47:08;6.00;;;2.05;;
52668;SDS011;59898;52.786;6.892;2023-09-19T15:50:29;5.57;;;2.53;;
52668;SDS011;59898;52.786;6.892;2023-09-19T15:53:50;7.20;;;2.00;;
52668;SDS011;59898;52.786;6.892;2023-09-19T15:57:12;4.03;;;2.10;;
52668;SDS011;59898;52.786;6.892;2023-09-19T16:00:34;8.15;;;2.70;;
52668;SDS011;59898;52.786;6.892;2023-09-19T16:03:54;4.78;;;2.05;;
52668;SDS011;59898;52.786;6.892;2023-09-19T16:07:18;5.90;;;2.00;;
52668;SDS011;59898;52.786;6.892;2023-09-19T16:10:41;3.47;;;2.13;;
52668;SDS011;59898;52.786;6.892;2023-09-19T16:17:22;6.45;;;3.38;;
52668;SDS011;59898;52.786;6.892;2023-09-19T16:20:43;5.18;;;2.17;;
52668;SDS011;59898;52.786;6.892;2023-09-19T16:24:04;6.68;;;2.20;;
52668;SDS011;59898;52.786;6.892;2023-09-19T16:27:32;6.20;;;2.22;;
52668;SDS011;59898;52.786;6.892;2023-09-19T16:30:55;4.32;;;2.00;;
52668;SDS011;59898;52.786;6.892;2023-09-19T16:34:18;15.32;;;2.15;;
52668;SDS011;59898;52.786;6.892;2023-09-19T16:37:39;9.13;;;2.42;;
52668;SDS011;59898;52.786;6.892;2023-09-19T16:40:59;10.55;;;2.65;;
52668;SDS011;59898;52.786;6.892;2023-09-19T16:44:20;4.32;;;2.30;;
52668;SDS011;59898;52.786;6.892;2023-09-19T16:47:40;7.07;;;2.08;;
52668;SDS011;59898;52.786;6.892;2023-09-19T16:51:02;3.92;;;2.30;;
52668;SDS011;59898;52.786;6.892;2023-09-19T16:54:29;3.83;;;2.20;;
52668;SDS011;59898;52.786;6.892;2023-09-19T16:57:50;3.67;;;1.95;;
52668;SDS011;59898;52.786;6.892;2023-09-19T17:01:11;7.03;;;2.65;;
52668;SDS011;59898;52.786;6.892;2023-09-19T17:04:33;3.83;;;2.00;;
52668;SDS011;59898;52.786;6.892;2023-09-19T17:07:54;5.28;;;2.47;;
52668;SDS011;59898;52.786;6.892;2023-09-19T17:11:15;5.70;;;2.67;;
52668;SDS011;59898;52.786;6.892;2023-09-19T17:14:37;4.65;;;2.28;;
52668;SDS011;59898;52.786;6.892;2023-09-19T17:17:58;5.32;;;2.70;;
52668;SDS011;59898;52.786;6.892;2023-09-19T17:21:19;4.47;;;1.95;;
52668;SDS011;59898;52.786;6.892;2023-09-19T17:24:40;6.18;;;2.67;;
52668;SDS011;59898;52.786;6.892;2023-09-19T17:28:00;5.78;;;2.15;;
52668;SDS011;59898;52.786;6.892;2023-09-19T17:31:23;7.03;;;2.40;;
52668;SDS011;59898;52.786;6.892;2023-09-19T17:34:46;3.67;;;2.00;;
52668;SDS011;59898;52.786;6.892;2023-09-19T17:38:09;6.57;;;2.75;;
52668;SDS011;59898;52.786;6.892;2023-09-19T17:41:30;7.93;;;2.45;;
52668;SDS011;59898;52.786;6.892;2023-09-19T17:44:51;6.03;;;3.03;;
52668;SDS011;59898;52.786;6.892;2023-09-19T17:48:12;5.85;;;2.40;;
52668;SDS011;59898;52.786;6.892;2023-09-19T17:51:32;7.32;;;2.50;;
52668;SDS011;59898;52.786;6.892;2023-09-19T17:54:53;5.85;;;2.83;;
52668;SDS011;59898;52.786;6.892;2023-09-19T17:58:14;7.40;;;2.75;;
52668;SDS011;59898;52.786;6.892;2023-09-19T18:01:37;5.20;;;2.25;;
52668;SDS011;59898;52.786;6.892;2023-09-19T18:04:58;5.10;;;2.60;;
52668;SDS011;59898;52.786;6.892;2023-09-19T18:08:19;5.78;;;2.15;;
52668;SDS011;59898;52.786;6.892;2023-09-19T18:11:43;6.40;;;2.50;;
52668;SDS011;59898;52.786;6.892;2023-09-19T18:15:04;5.18;;;2.42;;
52668;SDS011;59898;52.786;6.892;2023-09-19T18:18:27;5.55;;;2.05;;
52668;SDS011;59898;52.786;6.892;2023-09-19T18:21:47;7.07;;;2.50;;
52668;SDS011;59898;52.786;6.892;2023-09-19T18:25:08;7.15;;;2.72;;
52668;SDS011;59898;52.786;6.892;2023-09-19T18:28:29;5.03;;;2.40;;
52668;SDS011;59898;52.786;6.892;2023-09-19T18:35:12;6.63;;;2.50;;
52668;SDS011;59898;52.786;6.892;2023-09-19T18:38:38;4.78;;;3.45;;
52668;SDS011;59898;52.786;6.892;2023-09-19T18:42:00;4.25;;;2.60;;
52668;SDS011;59898;52.786;6.892;2023-09-19T18:45:20;6.70;;;2.63;;
52668;SDS011;59898;52.786;6.892;2023-09-19T18:48:42;6.90;;;2.65;;
52668;SDS011;59898;52.786;6.892;2023-09-19T18:52:04;7.38;;;3.15;;
52668;SDS011;59898;52.786;6.892;2023-09-19T18:55:28;6.18;;;3.20;;
52668;SDS011;59898;52.786;6.892;2023-09-19T18:58:51;9.75;;;2.92;;
52668;SDS011;59898;52.786;6.892;2023-09-19T19:02:12;7.75;;;2.88;;
52668;SDS011;59898;52.786;6.892;2023-09-19T19:05:32;11.73;;;3.53;;
52668;SDS011;59898;52.786;6.892;2023-09-19T19:08:53;5.72;;;2.95;;
52668;SDS011;59898;52.786;6.892;2023-09-19T19:12:14;8.32;;;2.75;;
52668;SDS011;59898;52.786;6.892;2023-09-19T19:15:35;8.00;;;2.72;;
52668;SDS011;59898;52.786;6.892;2023-09-19T19:18:55;5.95;;;2.60;;
52668;SDS011;59898;52.786;6.892;2023-09-19T19:22:16;11.18;;;3.10;;
52668;SDS011;59898;52.786;6.892;2023-09-19T19:25:37;7.00;;;3.58;;
52668;SDS011;59898;52.786;6.892;2023-09-19T19:29:11;8.23;;;3.25;;
52668;SDS011;59898;52.786;6.892;2023-09-19T19:32:35;9.13;;;3.65;;
52668;SDS011;59898;52.786;6.892;2023-09-19T19:36:02;5.82;;;3.33;;
52668;SDS011;59898;52.786;6.892;2023-09-19T19:39:29;5.97;;;3.00;;
52668;SDS011;59898;52.786;6.892;2023-09-19T19:42:52;5.97;;;3.05;;
52668;SDS011;59898;52.786;6.892;2023-09-19T19:46:13;6.32;;;2.78;;
52668;SDS011;59898;52.786;6.892;2023-09-19T19:49:41;8.18;;;3.53;;
52668;SDS011;59898;52.786;6.892;2023-09-19T19:53:05;9.65;;;2.90;;
52668;SDS011;59898;52.786;6.892;2023-09-19T19:56:33;8.77;;;3.05;;
52668;SDS011;59898;52.786;6.892;2023-09-19T19:59:55;9.10;;;3.70;;
52668;SDS011;59898;52.786;6.892;2023-09-19T20:03:16;5.68;;;2.85;;
52668;SDS011;59898;52.786;6.892;2023-09-19T20:06:38;4.38;;;3.20;;
52668;SDS011;59898;52.786;6.892;2023-09-19T20:10:01;9.27;;;3.20;;
52668;SDS011;59898;52.786;6.892;2023-09-19T20:13:23;8.90;;;3.20;;
52668;SDS011;59898;52.786;6.892;2023-09-19T20:16:43;7.65;;;3.42;;
52668;SDS011;59898;52.786;6.892;2023-09-19T20:20:05;9.43;;;3.50;;
52668;SDS011;59898;52.786;6.892;2023-09-19T20:23:38;6.13;;;3.50;;
52668;SDS011;59898;52.786;6.892;2023-09-19T20:27:03;9.00;;;3.78;;
52668;SDS011;59898;52.786;6.892;2023-09-19T20:30:26;8.40;;;3.80;;
52668;SDS011;59898;52.786;6.892;2023-09-19T20:33:47;9.07;;;4.13;;
52668;SDS011;59898;52.786;6.892;2023-09-19T20:37:09;7.75;;;3.20;;
52668;SDS011;59898;52.786;6.892;2023-09-19T20:40:29;12.32;;;4.30;;
52668;SDS011;59898;52.786;6.892;2023-09-19T20:43:51;4.22;;;3.28;;
52668;SDS011;59898;52.786;6.892;2023-09-19T20:47:11;6.72;;;3.05;;
52668;SDS011;59898;52.786;6.892;2023-09-19T20:50:32;8.23;;;2.95;;
52668;SDS011;59898;52.786;6.892;2023-09-19T20:53:53;10.50;;;3.17;;
52668;SDS011;59898;52.786;6.892;2023-09-19T20:57:14;6.80;;;3.08;;
52668;SDS011;59898;52.786;6.892;2023-09-19T21:00:34;8.13;;;3.88;;